createdAt,value
2019-04-26T00:02:35.504Z,12.30
2019-04-26T00:07:40.423Z,12.20
2019-04-26T00:13:05.295Z,12.30
2019-04-26T00:18:11.821Z,12.10
2019-04-26T00:23:16.757Z,13.10
2019-04-26T00:28:21.883Z,13.90
2019-04-26T00:33:26.661Z,13.90
2019-04-26T00:38:31.403Z,14.00
2019-04-26T00:43:36.171Z,13.70
2019-04-26T00:48:42.133Z,14.00
2019-04-26T00:53:48.371Z,14.60
2019-04-26T00:58:54.575Z,13.90
2019-04-26T01:03:59.229Z,14.70
2019-04-26T01:09:05.994Z,14.40
2019-04-26T01:14:10.731Z,13.80
2019-04-26T01:19:17.498Z,13.40
2019-04-26T01:24:25.356Z,13.40
2019-04-26T01:29:31.871Z,13.50
2019-04-26T01:40:09.435Z,13.30
2019-04-26T01:45:21.522Z,14.30
2019-04-26T01:55:33.392Z,13.40
2019-04-26T02:05:55.079Z,12.70
2019-04-26T02:10:59.874Z,12.70
2019-04-26T02:16:04.802Z,12.70
2019-04-26T02:21:29.792Z,13.50
2019-04-26T02:26:35.927Z,13.20
2019-04-26T02:31:42.776Z,13.20
2019-04-26T02:36:57.712Z,12.90
2019-04-26T02:41:56.903Z,13.40
2019-04-26T02:47:37.312Z,13.10
2019-04-26T02:53:04.712Z,13.60
2019-04-26T02:58:11.148Z,12.90
2019-04-26T03:03:18.154Z,14.00
2019-04-26T03:08:24.947Z,13.30
2019-04-26T03:13:50.427Z,12.70
2019-04-26T03:19:08.034Z,14.50
2019-04-26T03:24:23.445Z,12.60
2019-04-26T03:30:18.663Z,13.00
2019-04-26T03:35:26.196Z,12.30
2019-04-26T03:41:10.049Z,12.60
2019-04-26T03:46:24.276Z,12.80
2019-04-26T03:51:59.408Z,12.10
2019-04-26T03:57:18.320Z,12.40
2019-04-26T04:02:50.095Z,12.80
2019-04-26T04:07:58.256Z,12.50
2019-04-26T04:13:51.527Z,13.10
2019-04-26T04:19:04.221Z,13.00
2019-04-26T04:24:13.317Z,12.70
2019-04-26T04:29:49.994Z,13.20
2019-04-26T04:34:52.782Z,13.20
2019-04-26T04:40:22.264Z,12.60
2019-04-26T04:46:09.551Z,12.00
2019-04-26T04:51:38.940Z,11.50
2019-04-26T04:57:16.978Z,11.20
2019-04-26T05:02:38.409Z,11.70
2019-04-26T05:08:06.650Z,11.80
2019-04-26T05:13:23.790Z,11.20
2019-04-26T05:18:54.831Z,11.60
2019-04-26T05:24:37.807Z,11.30
2019-04-26T05:30:26.187Z,11.40
2019-04-26T05:41:18.919Z,11.40
2019-04-26T05:47:21.486Z,11.30
2019-04-26T05:52:55.297Z,11.80
2019-04-26T05:58:29.643Z,11.30
2019-04-26T06:04:26.806Z,11.30
2019-04-26T06:10:29.238Z,11.70
2019-04-26T06:15:54.565Z,12.60
2019-04-26T06:21:11.041Z,12.80
2019-04-26T06:26:54.323Z,12.40
2019-04-26T06:32:10.602Z,13.00
2019-04-26T06:37:28.050Z,13.10
2019-04-26T06:43:14.673Z,13.90
2019-04-26T06:48:45.367Z,12.80
2019-04-26T06:54:11.970Z,12.80
2019-04-26T06:59:43.261Z,13.10
2019-04-26T07:05:18.523Z,13.50
2019-04-26T07:11:26.579Z,13.10
2019-04-26T07:16:45.187Z,13.30
2019-04-26T07:22:35.729Z,13.60
2019-04-26T07:28:23.493Z,14.10
2019-04-26T07:34:18.416Z,12.90
2019-04-26T07:40:14.351Z,13.30
2019-04-26T07:46:04.048Z,12.90
2019-04-26T07:51:57.532Z,13.10
2019-04-26T07:57:40.719Z,12.60
2019-04-26T08:03:08.821Z,12.90
2019-04-26T08:08:17.406Z,13.20
2019-04-26T08:13:23.974Z,12.70
2019-04-26T08:18:40.263Z,12.90
2019-04-26T08:24:05.197Z,13.50
2019-04-26T08:29:13.376Z,13.90
2019-04-26T08:34:28.926Z,14.50
2019-04-26T08:39:44.542Z,14.70
2019-04-26T08:44:57.312Z,14.70
2019-04-26T08:50:24.701Z,13.90
2019-04-26T08:55:32.634Z,14.40
2019-04-26T09:01:02.595Z,15.10
2019-04-26T09:06:20.752Z,15.20
2019-04-26T09:11:33.379Z,15.90
2019-04-26T09:16:33.509Z,15.00
2019-04-26T09:21:43.036Z,15.10
2019-04-26T09:27:03.216Z,15.20
2019-04-26T09:32:10.914Z,15.90
2019-04-26T09:37:15.928Z,14.40
2019-04-26T09:42:34.073Z,15.60
2019-04-26T09:47:53.861Z,15.10
2019-04-26T09:52:58.784Z,15.20
2019-04-26T09:58:03.606Z,14.80
2019-04-26T10:03:09.561Z,15.40
2019-04-26T10:08:15.543Z,14.90
2019-04-26T10:13:39.370Z,14.90
2019-04-26T10:18:48.449Z,15.90
2019-04-26T10:23:53.451Z,15.40
2019-04-26T10:28:58.198Z,15.40
2019-04-26T10:34:07.578Z,16.10
2019-04-26T10:39:13.315Z,16.80
2019-04-26T10:44:17.841Z,16.10
2019-04-26T10:49:46.129Z,16.10
2019-04-26T10:54:58.715Z,16.20
2019-04-26T11:00:06.479Z,16.90
2019-04-26T11:05:18.045Z,16.00
2019-04-26T11:10:18.001Z,16.10
2019-04-26T11:15:23.489Z,17.10
2019-04-26T11:20:28.247Z,14.30
2019-04-26T11:25:34.410Z,17.60
2019-04-26T11:30:41.273Z,17.30
2019-04-26T11:35:46.286Z,16.70
2019-04-26T11:41:05.106Z,18.10
2019-04-26T11:46:04.087Z,18.40
2019-04-26T11:51:04.137Z,18.20
2019-04-26T11:56:09.038Z,18.60
2019-04-26T12:01:15.541Z,18.60
2019-04-26T12:06:40.705Z,19.40
2019-04-26T12:11:49.619Z,19.10
2019-04-26T12:16:59.087Z,18.30
2019-04-26T12:21:59.727Z,18.10
2019-04-26T12:27:04.324Z,18.20
2019-04-26T12:32:08.856Z,18.10
2019-04-26T12:37:19.801Z,19.10
2019-04-26T12:42:19.947Z,19.00
2019-04-26T12:47:30.587Z,18.90
2019-04-26T12:52:37.357Z,19.40
2019-04-26T12:57:42.381Z,20.40
2019-04-26T13:02:50.077Z,20.80
2019-04-26T13:07:54.337Z,21.10
2019-04-26T13:13:06.163Z,21.40
2019-04-26T13:18:11.334Z,21.10
2019-04-26T13:23:16.731Z,20.70
2019-04-26T13:28:21.865Z,21.70
2019-04-26T13:33:27.366Z,21.50
2019-04-26T13:38:33.051Z,22.10
2019-04-26T13:43:37.489Z,22.60
2019-04-26T13:49:18.016Z,22.20
2019-04-26T13:54:23.170Z,22.80
2019-04-26T13:59:28.188Z,24.30
2019-04-26T14:04:37.267Z,23.20
2019-04-26T14:09:40.121Z,24.80
2019-04-26T14:14:44.603Z,21.50
2019-04-26T14:19:49.833Z,21.90
2019-04-26T14:25:01.625Z,21.80
2019-04-26T14:30:08.287Z,22.00
2019-04-26T14:35:15.679Z,22.60
2019-04-26T14:40:19.361Z,21.90
2019-04-26T14:45:24.309Z,22.90
2019-04-26T14:50:32.114Z,23.20
2019-04-26T14:55:35.678Z,23.10
2019-04-26T15:00:43.800Z,22.30
2019-04-26T15:06:06.344Z,22.10
2019-04-26T15:11:12.741Z,21.80
2019-04-26T15:16:17.036Z,21.40
2019-04-26T15:21:22.804Z,20.90
2019-04-26T15:26:29.952Z,20.90
2019-04-26T15:31:34.301Z,21.70
2019-04-26T15:36:38.804Z,21.80
2019-04-26T15:41:54.373Z,21.70
2019-04-26T15:47:14.385Z,21.30
2019-04-26T15:52:19.026Z,22.90
2019-04-26T15:57:24.477Z,21.80
2019-04-26T16:02:32.036Z,22.00
2019-04-26T16:07:36.662Z,20.40
2019-04-26T16:12:42.299Z,20.70
2019-04-26T16:17:47.095Z,20.80
2019-04-26T16:22:53.265Z,21.00
2019-04-26T16:28:15.677Z,20.20
2019-04-26T16:33:28.527Z,20.50
2019-04-26T16:38:38.197Z,19.60
2019-04-26T16:43:50.919Z,18.30
2019-04-26T16:48:48.936Z,18.30
2019-04-26T16:54:06.711Z,17.90
2019-04-26T16:58:59.611Z,18.00
2019-04-26T17:04:10.771Z,18.30
2019-04-26T17:09:10.583Z,18.70
2019-04-26T17:14:15.212Z,18.90
2019-04-26T17:19:20.017Z,18.90
2019-04-26T17:24:46.751Z,18.60
2019-04-26T17:29:52.760Z,18.30
2019-04-26T17:34:59.734Z,17.90
2019-04-26T17:40:03.984Z,18.00
2019-04-26T17:45:08.878Z,18.00
2019-04-26T17:50:13.726Z,18.10
2019-04-26T17:55:18.249Z,18.00
2019-04-26T18:00:27.284Z,17.60
2019-04-26T18:05:45.080Z,17.60
2019-04-26T18:10:40.063Z,17.70
2019-04-26T18:15:48.236Z,18.10
2019-04-26T18:21:22.931Z,18.40
2019-04-26T18:26:28.504Z,18.40
2019-04-26T18:31:33.651Z,18.30
2019-04-26T18:36:38.632Z,18.30
2019-04-26T18:41:43.587Z,18.20
2019-04-26T18:47:03.376Z,18.00
2019-04-26T18:52:08.944Z,18.20
2019-04-26T18:57:17.020Z,18.10
2019-04-26T19:02:23.389Z,17.00
2019-04-26T19:07:32.415Z,16.10
2019-04-26T19:12:36.825Z,15.00
2019-04-26T19:18:09.524Z,15.00
2019-04-26T19:23:15.614Z,15.00
2019-04-26T19:28:22.314Z,15.10
2019-04-26T19:33:27.125Z,17.10
2019-04-26T19:43:43.608Z,15.10
2019-04-26T20:14:56.793Z,13.30
2019-04-26T20:19:58.245Z,13.20
2019-04-26T20:30:10.301Z,13.00
2019-04-26T20:55:42.798Z,12.60
2019-04-26T21:11:01.225Z,12.10
2019-04-26T21:21:16.402Z,11.90
2019-04-26T21:32:05.337Z,11.80
2019-04-26T21:47:33.051Z,11.70
2019-04-26T21:57:43.906Z,11.30
2019-04-26T22:13:01.410Z,11.50
2019-04-26T22:43:55.232Z,11.70
2019-04-26T22:49:03.726Z,11.50
2019-04-26T22:54:07.891Z,11.70
2019-04-26T22:59:13.897Z,12.00
2019-04-26T23:04:24.951Z,12.00
2019-04-26T23:09:25.891Z,12.00
2019-04-26T23:15:03.214Z,12.00
2019-04-26T23:35:48.928Z,12.00
2019-04-26T23:40:53.476Z,11.90
2019-04-26T23:45:57.946Z,11.90
2019-04-26T23:51:05.052Z,11.80
2019-04-26T23:56:08.823Z,11.70
